createdAt,value
2019-02-17T00:01:00.280Z,99.90
2019-02-17T00:03:30.727Z,99.90
2019-02-17T00:06:01.210Z,99.90
2019-02-17T00:08:31.711Z,99.90
2019-02-17T00:11:09.688Z,99.90
2019-02-17T00:13:40.258Z,99.90
2019-02-17T00:16:10.771Z,99.90
2019-02-17T00:18:41.270Z,99.90
2019-02-17T00:21:11.883Z,99.90
2019-02-17T00:23:42.346Z,99.90
2019-02-17T00:26:12.724Z,99.90
2019-02-17T00:28:43.207Z,99.90
2019-02-17T00:31:13.810Z,99.90
2019-02-17T00:33:44.280Z,99.90
2019-02-17T00:36:14.792Z,99.90
2019-02-17T00:38:45.202Z,99.90
2019-02-17T00:41:15.711Z,99.90
2019-02-17T00:43:46.137Z,99.90
2019-02-17T00:46:17.474Z,99.90
2019-02-17T00:48:48.420Z,99.90
2019-02-17T00:51:19.030Z,99.90
2019-02-17T00:53:49.531Z,99.90
2019-02-17T00:56:19.965Z,99.90
2019-02-17T00:58:50.574Z,99.90
2019-02-17T01:01:21.261Z,99.90
2019-02-17T01:03:51.713Z,99.90
2019-02-17T01:06:22.291Z,99.90
2019-02-17T01:08:52.866Z,99.90
2019-02-17T01:11:23.450Z,99.90
2019-02-17T01:13:53.956Z,99.90
2019-02-17T01:16:25.025Z,99.90
2019-02-17T01:18:55.607Z,99.90
2019-02-17T01:21:26.190Z,99.90
2019-02-17T01:23:56.670Z,99.90
2019-02-17T01:26:27.262Z,99.90
2019-02-17T01:28:57.844Z,99.90
2019-02-17T01:31:28.399Z,99.90
2019-02-17T01:34:00.427Z,99.90
2019-02-17T01:36:30.846Z,99.90
2019-02-17T01:39:01.377Z,99.90
2019-02-17T01:41:31.923Z,99.90
2019-02-17T01:44:02.484Z,99.90
2019-02-17T01:46:33.942Z,99.90
2019-02-17T01:49:04.555Z,99.90
2019-02-17T01:51:34.987Z,99.90
2019-02-17T01:54:05.642Z,99.90
2019-02-17T01:56:36.229Z,99.90
2019-02-17T01:59:06.893Z,99.90
2019-02-17T02:01:39.157Z,99.90
2019-02-17T02:04:09.767Z,99.90
2019-02-17T02:06:40.303Z,99.90
2019-02-17T02:09:11.459Z,99.90
2019-02-17T02:11:42.001Z,99.90
2019-02-17T02:14:12.583Z,99.90
2019-02-17T02:16:43.251Z,99.90
2019-02-17T02:19:13.747Z,99.90
2019-02-17T02:21:44.367Z,99.90
2019-02-17T02:24:14.868Z,99.90
2019-02-17T02:26:45.276Z,99.90
2019-02-17T02:29:15.782Z,99.90
2019-02-17T02:31:46.354Z,99.90
2019-02-17T02:34:16.809Z,99.90
2019-02-17T02:36:47.438Z,99.90
2019-02-17T02:39:17.882Z,99.90
2019-02-17T02:41:48.263Z,99.90
2019-02-17T02:44:19.681Z,99.90
2019-02-17T02:46:50.931Z,99.90
2019-02-17T02:49:21.323Z,99.90
2019-02-17T02:51:51.813Z,99.90
2019-02-17T02:54:22.311Z,99.90
2019-02-17T02:56:52.822Z,99.90
2019-02-17T02:59:23.396Z,99.90
2019-02-17T03:01:53.841Z,99.90
2019-02-17T03:04:24.308Z,99.90
2019-02-17T03:06:56.779Z,99.90
2019-02-17T03:09:27.303Z,99.90
2019-02-17T03:11:57.742Z,99.90
2019-02-17T03:14:28.271Z,99.90
2019-02-17T03:17:00.628Z,99.90
2019-02-17T03:19:30.977Z,99.90
2019-02-17T03:22:01.561Z,99.90
2019-02-17T03:24:31.998Z,99.90
2019-02-17T03:27:02.614Z,99.90
2019-02-17T03:29:33.143Z,99.90
2019-02-17T03:32:03.830Z,99.90
2019-02-17T03:34:34.206Z,99.90
2019-02-17T03:37:04.651Z,99.90
2019-02-17T03:39:35.223Z,99.90
2019-02-17T03:42:06.008Z,99.90
2019-02-17T03:44:36.672Z,99.90
2019-02-17T03:47:07.820Z,99.90
2019-02-17T03:49:38.293Z,99.90
2019-02-17T03:52:08.768Z,99.90
2019-02-17T03:54:39.303Z,99.90
2019-02-17T03:57:09.778Z,99.90
2019-02-17T03:59:40.345Z,99.90
2019-02-17T04:02:10.902Z,99.90
2019-02-17T04:04:41.468Z,99.90
2019-02-17T04:07:11.924Z,99.90
2019-02-17T04:09:42.502Z,99.90
2019-02-17T04:12:13.060Z,99.90
2019-02-17T04:14:43.682Z,99.90
2019-02-17T04:17:14.201Z,99.90
2019-02-17T04:19:44.840Z,99.90
2019-02-17T04:22:15.420Z,99.90
2019-02-17T04:24:46.003Z,99.90
2019-02-17T04:27:16.543Z,99.90
2019-02-17T04:29:47.191Z,99.90
2019-02-17T04:32:17.703Z,99.90
2019-02-17T04:34:48.276Z,99.90
2019-02-17T04:37:18.874Z,99.90
2019-02-17T04:39:49.369Z,99.90
2019-02-17T04:42:19.845Z,99.90
2019-02-17T04:44:50.314Z,99.90
2019-02-17T04:47:21.696Z,99.90
2019-02-17T04:49:52.207Z,99.90
2019-02-17T04:52:22.666Z,99.90
2019-02-17T04:54:53.404Z,99.90
2019-02-17T04:57:23.877Z,99.90
2019-02-17T04:59:54.416Z,99.90
2019-02-17T05:02:25.092Z,99.90
2019-02-17T05:04:57.511Z,99.90
2019-02-17T05:07:27.967Z,99.90
2019-02-17T05:09:58.444Z,99.90
2019-02-17T05:12:28.932Z,99.90
2019-02-17T05:14:59.479Z,99.90
2019-02-17T05:17:30.075Z,99.90
2019-02-17T05:20:00.616Z,99.90
2019-02-17T05:22:31.675Z,99.90
2019-02-17T05:25:02.218Z,99.90
2019-02-17T05:27:32.755Z,99.90
2019-02-17T05:30:06.043Z,99.90
2019-02-17T05:32:35.706Z,99.90
2019-02-17T05:35:06.962Z,99.90
2019-02-17T05:37:37.486Z,99.90
2019-02-17T05:40:08.288Z,99.90
2019-02-17T05:42:38.812Z,99.90
2019-02-17T05:45:09.841Z,99.90
2019-02-17T05:47:41.006Z,99.90
2019-02-17T05:50:11.635Z,99.90
2019-02-17T05:52:42.090Z,99.90
2019-02-17T05:55:13.040Z,99.90
2019-02-17T05:57:43.464Z,99.90
2019-02-17T06:00:15.183Z,99.90
2019-02-17T06:02:45.651Z,99.90
2019-02-17T06:05:16.203Z,99.90
2019-02-17T06:07:46.843Z,99.90
2019-02-17T06:10:17.242Z,99.90
2019-02-17T06:12:47.744Z,99.90
2019-02-17T06:15:18.236Z,99.90
2019-02-17T06:17:48.812Z,99.90
2019-02-17T06:20:19.364Z,99.90
2019-02-17T06:22:49.881Z,99.90
2019-02-17T06:25:20.889Z,99.90
2019-02-17T06:27:51.464Z,99.90
2019-02-17T06:30:22.246Z,99.90
2019-02-17T06:32:52.814Z,99.90
2019-02-17T06:35:23.458Z,99.90
2019-02-17T06:37:53.951Z,99.90
2019-02-17T06:40:24.515Z,99.90
2019-02-17T06:42:55.226Z,99.90
2019-02-17T06:45:25.679Z,99.90
2019-02-17T06:47:56.971Z,99.90
2019-02-17T06:50:27.651Z,99.90
2019-02-17T06:52:58.039Z,99.90
2019-02-17T06:55:33.247Z,99.90
2019-02-17T06:58:03.810Z,99.90
2019-02-17T07:00:35.886Z,99.90
2019-02-17T07:03:07.496Z,99.90
2019-02-17T07:05:39.649Z,99.90
2019-02-17T07:08:11.151Z,99.90
2019-02-17T07:10:41.607Z,99.90
2019-02-17T07:13:12.091Z,99.90
2019-02-17T07:15:42.623Z,99.90
2019-02-17T07:18:13.092Z,99.90
2019-02-17T07:20:43.572Z,99.90
2019-02-17T07:23:15.330Z,99.90
2019-02-17T07:25:46.150Z,99.90
2019-02-17T07:28:16.511Z,99.90
2019-02-17T07:30:46.977Z,99.90
2019-02-17T07:33:17.462Z,99.90
2019-02-17T07:35:48.205Z,99.90
2019-02-17T07:38:18.829Z,99.90
2019-02-17T07:40:51.192Z,99.90
2019-02-17T07:43:21.707Z,99.90
2019-02-17T07:45:52.281Z,99.90
2019-02-17T07:48:23.573Z,99.90
2019-02-17T07:50:54.026Z,99.90
2019-02-17T07:53:24.559Z,99.90
2019-02-17T07:55:55.127Z,99.90
2019-02-17T07:58:25.883Z,99.90
2019-02-17T08:00:56.480Z,99.90
2019-02-17T08:03:27.036Z,99.90
2019-02-17T08:05:57.637Z,99.90
2019-02-17T08:08:28.195Z,99.90
2019-02-17T08:11:03.995Z,99.90
2019-02-17T08:13:31.044Z,99.90
2019-02-17T08:16:02.924Z,99.90
2019-02-17T08:18:33.440Z,99.90
2019-02-17T08:21:03.892Z,99.90
2019-02-17T08:23:34.388Z,99.90
2019-02-17T08:26:05.150Z,99.90
2019-02-17T08:28:35.564Z,99.90
2019-02-17T08:31:06.042Z,99.90
2019-02-17T08:33:36.599Z,99.90
2019-02-17T08:36:07.068Z,99.90
2019-02-17T08:38:37.668Z,99.90
2019-02-17T08:41:11.432Z,99.90
2019-02-17T08:43:41.950Z,99.90
2019-02-17T08:46:12.405Z,99.90
2019-02-17T08:48:43.693Z,99.90
2019-02-17T08:51:14.309Z,99.90
2019-02-17T08:53:44.919Z,99.90
2019-02-17T08:56:15.406Z,99.90
2019-02-17T08:58:45.870Z,99.90
2019-02-17T09:01:16.527Z,99.90
2019-02-17T09:03:47.069Z,99.90
2019-02-17T09:06:17.834Z,99.90
2019-02-17T09:08:48.233Z,99.90
2019-02-17T09:11:19.308Z,99.90
2019-02-17T09:13:49.870Z,99.20
2019-02-17T09:16:20.420Z,99.90
2019-02-17T09:18:50.881Z,99.90
2019-02-17T09:21:21.422Z,99.90
2019-02-17T09:23:51.995Z,98.30
2019-02-17T09:26:22.547Z,99.90
2019-02-17T09:28:53.177Z,99.90
2019-02-17T09:31:23.718Z,99.90
2019-02-17T09:33:54.354Z,99.90
2019-02-17T09:36:25.083Z,99.90
2019-02-17T09:38:56.383Z,99.90
2019-02-17T09:41:26.925Z,99.90
2019-02-17T09:43:57.355Z,99.90
2019-02-17T09:46:28.392Z,99.90
2019-02-17T09:48:59.721Z,99.90
2019-02-17T09:51:30.448Z,99.90
2019-02-17T09:54:01.680Z,97.00
2019-02-17T09:56:32.620Z,95.00
2019-02-17T09:59:04.012Z,91.80
2019-02-17T10:01:34.683Z,87.40
2019-02-17T10:04:06.048Z,88.00
2019-02-17T10:06:36.536Z,82.80
2019-02-17T10:09:08.268Z,81.90
2019-02-17T10:11:39.808Z,79.40
2019-02-17T10:14:10.363Z,79.10
2019-02-17T10:16:42.062Z,77.60
2019-02-17T10:19:12.500Z,76.90
2019-02-17T10:21:43.977Z,71.20
2019-02-17T10:24:15.218Z,69.80
2019-02-17T10:26:45.703Z,72.70
2019-02-17T10:29:16.095Z,71.60
2019-02-17T10:31:46.993Z,69.40
2019-02-17T10:34:17.503Z,71.90
2019-02-17T10:36:48.033Z,71.80
2019-02-17T10:39:18.544Z,69.00
2019-02-17T10:41:49.137Z,67.50
2019-02-17T10:44:19.848Z,65.40
2019-02-17T10:46:50.410Z,63.20
2019-02-17T10:49:20.923Z,63.50
2019-02-17T10:51:51.570Z,61.60
2019-02-17T10:54:23.153Z,61.20
2019-02-17T10:56:53.944Z,59.40
2019-02-17T10:59:24.495Z,58.40
2019-02-17T11:01:55.032Z,58.70
2019-02-17T11:04:25.671Z,56.80
2019-02-17T11:06:56.232Z,56.60
2019-02-17T11:09:26.760Z,57.80
2019-02-17T11:11:57.330Z,57.40
2019-02-17T11:14:28.001Z,60.50
2019-02-17T11:16:59.333Z,59.30
2019-02-17T11:19:29.964Z,59.70
2019-02-17T11:22:00.577Z,60.60
2019-02-17T11:24:31.194Z,61.70
2019-02-17T11:27:03.393Z,60.50
2019-02-17T11:29:34.056Z,60.40
2019-02-17T11:32:04.677Z,56.90
2019-02-17T11:34:35.158Z,58.70
2019-02-17T11:37:06.115Z,59.30
2019-02-17T11:39:36.571Z,60.20
2019-02-17T11:42:07.197Z,59.80
2019-02-17T11:44:40.765Z,58.60
2019-02-17T11:47:11.285Z,58.70
2019-02-17T11:49:42.584Z,61.00
2019-02-17T11:52:13.166Z,62.10
2019-02-17T11:54:43.746Z,60.90
2019-02-17T11:57:14.253Z,59.60
2019-02-17T11:59:44.842Z,61.50
2019-02-17T12:02:24.645Z,60.40
2019-02-17T12:04:48.014Z,61.00
2019-02-17T12:07:18.785Z,60.10
2019-02-17T12:09:49.317Z,57.40
2019-02-17T12:12:20.756Z,57.20
2019-02-17T12:14:52.786Z,56.40
2019-02-17T12:17:23.482Z,54.80
2019-02-17T12:19:55.532Z,55.50
2019-02-17T12:22:27.828Z,54.40
2019-02-17T12:25:00.062Z,55.70
2019-02-17T12:27:38.070Z,54.20
2019-02-17T12:30:10.830Z,53.70
2019-02-17T12:32:41.331Z,53.40
2019-02-17T12:35:11.938Z,52.90
2019-02-17T12:37:42.554Z,53.10
2019-02-17T12:40:13.179Z,51.60
2019-02-17T12:42:43.722Z,52.20
2019-02-17T12:45:18.139Z,51.70
2019-02-17T12:47:55.438Z,50.30
2019-02-17T12:50:20.269Z,50.80
2019-02-17T12:52:50.940Z,51.40
2019-02-17T12:55:21.415Z,49.80
2019-02-17T12:57:51.939Z,49.60
2019-02-17T13:00:22.415Z,48.30
2019-02-17T13:02:52.884Z,49.20
2019-02-17T13:05:24.352Z,49.10
2019-02-17T13:07:54.936Z,47.20
2019-02-17T13:10:25.475Z,48.00
2019-02-17T13:12:56.083Z,47.90
2019-02-17T13:15:26.582Z,46.60
2019-02-17T13:17:57.232Z,47.90
2019-02-17T13:20:27.826Z,46.60
2019-02-17T13:22:58.475Z,47.20
2019-02-17T13:25:28.953Z,46.60
2019-02-17T13:27:59.442Z,46.30
2019-02-17T13:30:29.957Z,45.40
2019-02-17T13:33:00.590Z,45.90
2019-02-17T13:35:31.074Z,46.00
2019-02-17T13:38:01.555Z,45.70
2019-02-17T13:40:32.073Z,46.80
2019-02-17T13:43:02.665Z,43.90
2019-02-17T13:45:33.245Z,44.60
2019-02-17T13:48:03.902Z,44.90
2019-02-17T13:50:35.273Z,44.10
2019-02-17T13:53:11.742Z,45.30
2019-02-17T13:55:38.925Z,44.10
2019-02-17T13:58:09.558Z,42.60
2019-02-17T14:00:40.146Z,42.90
2019-02-17T14:03:10.726Z,42.70
2019-02-17T14:05:41.305Z,42.70
2019-02-17T14:08:12.716Z,43.00
2019-02-17T14:10:43.207Z,44.00
2019-02-17T14:13:13.722Z,45.30
2019-02-17T14:15:44.264Z,46.20
2019-02-17T14:18:14.749Z,46.60
2019-02-17T14:20:45.313Z,46.40
2019-02-17T14:23:16.120Z,47.70
2019-02-17T14:25:46.647Z,48.30
2019-02-17T14:28:18.016Z,46.60
2019-02-17T14:30:48.482Z,46.10
2019-02-17T14:33:19.168Z,47.10
2019-02-17T14:35:49.718Z,45.90
2019-02-17T14:38:21.348Z,45.90
2019-02-17T14:40:52.452Z,45.70
2019-02-17T14:43:23.126Z,46.20
2019-02-17T14:45:53.579Z,46.60
2019-02-17T14:48:24.224Z,46.40
2019-02-17T14:50:56.473Z,46.60
2019-02-17T14:53:27.022Z,47.60
2019-02-17T14:55:57.687Z,47.30
2019-02-17T14:58:28.716Z,47.70
2019-02-17T15:00:59.325Z,47.40
2019-02-17T15:03:29.799Z,47.50
2019-02-17T15:06:00.403Z,47.60
2019-02-17T15:08:31.465Z,48.00
2019-02-17T15:11:02.461Z,48.40
2019-02-17T15:13:33.548Z,48.30
2019-02-17T15:16:04.811Z,48.50
2019-02-17T15:18:35.341Z,48.70
2019-02-17T15:21:05.914Z,49.20
2019-02-17T15:23:36.507Z,49.60
2019-02-17T15:26:07.605Z,49.90
2019-02-17T15:28:38.535Z,50.40
2019-02-17T15:31:09.180Z,50.90
2019-02-17T15:33:39.579Z,50.90
2019-02-17T15:36:10.627Z,51.30
2019-02-17T15:38:41.948Z,51.00
2019-02-17T15:41:12.413Z,51.10
2019-02-17T15:43:43.034Z,50.90
2019-02-17T15:46:14.111Z,51.60
2019-02-17T15:48:44.748Z,54.20
2019-02-17T15:51:16.184Z,56.50
2019-02-17T15:53:46.814Z,56.50
2019-02-17T15:56:17.346Z,56.60
2019-02-17T15:58:48.004Z,57.20
2019-02-17T16:01:18.523Z,58.40
2019-02-17T16:03:49.141Z,59.50
2019-02-17T16:06:19.696Z,60.50
2019-02-17T16:08:52.188Z,61.00
2019-02-17T16:11:22.657Z,65.30
2019-02-17T16:13:54.193Z,69.70
2019-02-17T16:16:24.772Z,73.90
2019-02-17T16:18:55.280Z,78.40
2019-02-17T16:21:25.792Z,80.10
2019-02-17T16:23:56.449Z,82.30
2019-02-17T16:26:27.052Z,87.20
2019-02-17T16:28:57.634Z,90.10
2019-02-17T16:31:28.316Z,91.00
2019-02-17T16:34:01.065Z,91.90
2019-02-17T16:36:31.613Z,92.00
2019-02-17T16:39:02.186Z,93.70
2019-02-17T16:41:34.304Z,94.40
2019-02-17T16:44:04.873Z,97.40
2019-02-17T16:46:35.337Z,98.00
2019-02-17T16:49:05.927Z,97.70
2019-02-17T16:51:37.268Z,97.40
2019-02-17T16:54:07.922Z,99.80
2019-02-17T16:56:38.432Z,99.90
2019-02-17T16:59:09.088Z,99.90
2019-02-17T17:01:39.632Z,99.90
2019-02-17T17:04:11.011Z,99.90
2019-02-17T17:06:41.559Z,99.90
2019-02-17T17:09:12.211Z,99.90
2019-02-17T17:11:42.807Z,99.90
2019-02-17T17:17:13.710Z,99.90
2019-02-17T17:19:44.268Z,99.90
2019-02-17T17:22:15.131Z,99.90
2019-02-17T17:24:45.974Z,99.90
2019-02-17T17:27:16.540Z,99.90
2019-02-17T17:29:47.245Z,99.90
2019-02-17T17:32:17.845Z,99.90
2019-02-17T17:34:58.393Z,99.90
2019-02-17T17:37:20.716Z,99.90
2019-02-17T17:39:51.507Z,99.90
2019-02-17T17:42:22.126Z,99.90
2019-02-17T17:44:53.308Z,99.90
2019-02-17T17:47:23.921Z,99.90
2019-02-17T17:49:54.594Z,99.90
2019-02-17T17:52:25.834Z,99.90
2019-02-17T17:54:56.310Z,99.90
2019-02-17T17:57:27.122Z,99.90
2019-02-17T17:59:57.817Z,99.90
2019-02-17T18:02:28.384Z,99.90
2019-02-17T18:05:08.451Z,99.90
2019-02-17T18:07:30.970Z,99.90
2019-02-17T18:10:01.442Z,99.90
2019-02-17T18:12:31.897Z,99.90
2019-02-17T18:15:12.041Z,99.90
2019-02-17T18:17:53.504Z,99.90
2019-02-17T18:20:16.483Z,99.90
2019-02-17T18:22:47.100Z,99.90
2019-02-17T18:25:17.832Z,99.90
2019-02-17T18:27:51.637Z,99.90
2019-02-17T18:30:22.568Z,99.90
2019-02-17T18:32:53.047Z,99.90
2019-02-17T18:35:23.588Z,99.90
2019-02-17T18:37:54.944Z,99.90
2019-02-17T18:40:25.489Z,99.90
2019-02-17T18:42:55.968Z,99.90
2019-02-17T18:45:28.254Z,99.90
2019-02-17T18:47:58.705Z,99.90
2019-02-17T18:53:06.593Z,99.90
2019-02-17T18:55:37.032Z,99.90
2019-02-17T18:58:07.460Z,99.90
2019-02-17T19:00:38.012Z,99.90
2019-02-17T19:03:08.592Z,99.90
2019-02-17T19:05:39.062Z,99.90
2019-02-17T19:08:09.602Z,99.90
2019-02-17T19:10:40.142Z,99.90
2019-02-17T19:13:10.640Z,99.90
2019-02-17T19:15:41.250Z,99.90
2019-02-17T19:18:11.739Z,99.90
2019-02-17T19:20:42.382Z,99.90
2019-02-17T19:23:12.841Z,99.90
2019-02-17T19:25:44.641Z,99.90
2019-02-17T19:28:16.336Z,99.90
2019-02-17T19:30:46.909Z,99.90
2019-02-17T19:33:17.459Z,99.90
2019-02-17T19:35:47.913Z,99.90
2019-02-17T19:38:18.495Z,99.90
2019-02-17T19:40:48.972Z,99.90
2019-02-17T19:43:19.569Z,99.90
2019-02-17T19:45:50.090Z,99.90
2019-02-17T19:48:21.551Z,99.90
2019-02-17T19:50:51.955Z,99.90
2019-02-17T19:53:23.316Z,99.90
2019-02-17T19:55:53.887Z,99.90
2019-02-17T19:58:24.274Z,99.90
2019-02-17T20:00:56.367Z,99.90
2019-02-17T20:03:31.222Z,99.90
2019-02-17T20:06:03.358Z,99.90
2019-02-17T20:08:33.909Z,99.90
2019-02-17T20:11:04.605Z,99.90
2019-02-17T20:13:35.260Z,99.90
2019-02-17T20:16:05.880Z,99.90
2019-02-17T20:18:36.422Z,99.90
2019-02-17T20:21:07.034Z,99.90
2019-02-17T20:23:37.495Z,99.90
2019-02-17T20:26:09.012Z,99.90
2019-02-17T20:28:43.287Z,99.90
2019-02-17T20:31:11.732Z,99.90
2019-02-17T20:33:42.399Z,99.90
2019-02-17T20:36:12.938Z,99.90
2019-02-17T20:38:43.513Z,99.90
2019-02-17T20:41:14.050Z,99.90
2019-02-17T20:43:44.697Z,99.90
2019-02-17T20:46:15.231Z,99.90
2019-02-17T20:48:45.922Z,99.90
2019-02-17T20:51:16.406Z,99.90
2019-02-17T20:53:47.806Z,99.90
2019-02-17T20:56:18.386Z,99.90
2019-02-17T20:58:49.065Z,99.90
2019-02-17T21:01:19.607Z,99.90
2019-02-17T21:03:50.127Z,99.90
2019-02-17T21:06:20.612Z,99.90
2019-02-17T21:08:51.035Z,99.90
2019-02-17T21:11:21.481Z,99.90
2019-02-17T21:13:52.030Z,99.90
2019-02-17T21:16:22.545Z,99.90
2019-02-17T21:18:53.155Z,99.90
2019-02-17T21:21:23.701Z,99.90
2019-02-17T21:23:54.262Z,99.90
2019-02-17T21:26:26.444Z,99.90
2019-02-17T21:28:57.152Z,99.90
2019-02-17T21:31:27.760Z,99.90
2019-02-17T21:33:58.409Z,99.90
2019-02-17T21:36:29.995Z,99.90
2019-02-17T21:39:00.382Z,99.90
2019-02-17T21:41:30.983Z,99.90
2019-02-17T21:44:01.552Z,99.90
2019-02-17T21:46:32.153Z,99.90
2019-02-17T21:49:02.734Z,99.90
2019-02-17T21:51:33.393Z,99.90
2019-02-17T21:54:05.009Z,99.90
2019-02-17T21:56:35.573Z,99.90
2019-02-17T21:59:06.064Z,99.90
2019-02-17T22:01:36.478Z,99.90
2019-02-17T22:04:07.083Z,99.90
2019-02-17T22:06:37.610Z,99.90
2019-02-17T22:09:08.624Z,99.90
2019-02-17T22:11:39.073Z,99.90
2019-02-17T22:14:09.515Z,99.90
2019-02-17T22:16:39.990Z,99.90
2019-02-17T22:19:11.127Z,99.90
2019-02-17T22:21:41.609Z,99.90
2019-02-17T22:24:13.958Z,99.90
2019-02-17T22:26:44.395Z,99.90
2019-02-17T22:29:14.787Z,99.90
2019-02-17T22:31:45.152Z,99.90
2019-02-17T22:34:15.654Z,99.90
2019-02-17T22:36:46.136Z,99.90
2019-02-17T22:39:16.677Z,99.90
2019-02-17T22:41:47.061Z,99.90
2019-02-17T22:44:17.604Z,99.90
2019-02-17T22:46:48.146Z,99.90
2019-02-17T22:49:18.761Z,99.90
2019-02-17T22:51:49.302Z,99.90
2019-02-17T22:54:20.572Z,99.90
2019-02-17T22:56:51.120Z,99.90
2019-02-17T22:59:21.585Z,99.90
2019-02-17T23:01:52.327Z,99.90
2019-02-17T23:04:23.003Z,99.90
2019-02-17T23:06:54.534Z,99.90
2019-02-17T23:09:25.242Z,99.90
2019-02-17T23:11:55.924Z,99.90
2019-02-17T23:14:26.357Z,99.90
2019-02-17T23:16:56.877Z,99.90
2019-02-17T23:19:27.434Z,99.90
2019-02-17T23:21:58.162Z,99.90
2019-02-17T23:24:29.363Z,99.90
2019-02-17T23:26:59.974Z,99.90
2019-02-17T23:29:30.537Z,99.90
2019-02-17T23:32:01.125Z,99.90
2019-02-17T23:34:32.163Z,99.90
2019-02-17T23:37:04.232Z,99.90
2019-02-17T23:39:35.055Z,99.90
2019-02-17T23:42:05.644Z,99.90
2019-02-17T23:44:36.200Z,99.90
2019-02-17T23:47:06.825Z,99.90
2019-02-17T23:49:37.237Z,99.90
2019-02-17T23:52:07.839Z,99.90
2019-02-17T23:54:39.958Z,99.90
2019-02-17T23:57:11.568Z,99.90
2019-02-17T23:59:42.060Z,99.90
